Portada
METAR-TAF:

METAR-TAF

Aeropuertos :

Aeropuerto de Hihifo

Wallis, Francia

latitud: 13-14S, longitud: 176-10W, altitud: 23 m

METAR: falta

Hora: 06:25 (18:25 UTC)

Pronóstico

El informe se hizo hace 1 hora y 25 minutos, a las 17:00 UTC
Pronóstico válido del 13 a las 18 UTC al 14 a las 18 UTC
Viento 6 kt del este
Visibilidad 10 km o más
Escasas nubes a una altura de 2500 ft
Temporalmente
del 13 a las 18 UTC al 14 a las 18 UTC
Visibilidad: 4000 m
Cielo nuboso a una altura de 1400 ft
chaparrones de lluvia
Probabilidad 30% :
Temporalmente
del 13 a las 18 UTC al 14 a las 18 UTC
Visibilidad: 2000 m
Cielo nuboso a una altura de 900 ft
Nubes dispersas a una altura de 1600 ft, Cumulonimbus.
chaparrones de lluvia

TAF: NLWW 131700Z 1318/1418 10006KT 9999 FEW025 TEMPO 1318/1418 4000 SHRA BKN014 PROB30 TEMPO 1318/1418 2000 +SHRA BKN009 SCT016CB

Observaciones y pronósticos meteorológicos de más de 4000 aeropuertos (mensajes METAR y TAF).

Los puntos amarillos y rojos representan las estaciones disponibles.

Ponga el ratón en el punto deseado para ver el nombre de la estación.

Haga clic para ver las observaciones y los pronósticos meteorológicos.

Para cambiar el mapa : haga clic en los botones verdes con una cruz de color negro para hacer un zoom, en el botón verde con un guión para alejar o en las flechas verdes para mapas adyacentes.


METAR-TAF: